sensor_id;sensor_type;location;lat;lon;timestamp;pressure;altitude;pressure_sealevel;temperature;humidity
38786;BME280;24535;45.508;12.252;2024-01-11T00:00:38;102637.03;;;10.67;42.05
38786;BME280;24535;45.508;12.252;2024-01-11T00:03:04;102641.31;;;10.69;41.32
38786;BME280;24535;45.508;12.252;2024-01-11T00:13:15;102627.47;;;10.64;41.73
38786;BME280;24535;45.508;12.252;2024-01-11T00:18:15;102640.69;;;10.62;41.90
38786;BME280;24535;45.508;12.252;2024-01-11T00:20:43;102637.22;;;10.62;41.81
38786;BME280;24535;45.508;12.252;2024-01-11T00:23:08;102643.34;;;10.62;41.81
38786;BME280;24535;45.508;12.252;2024-01-11T00:28:56;102631.94;;;10.62;42.13
38786;BME280;24535;45.508;12.252;2024-01-11T00:32:05;102624.06;;;10.60;41.89
38786;BME280;24535;45.508;12.252;2024-01-11T00:39:45;102627.69;;;10.58;41.69
38786;BME280;24535;45.508;12.252;2024-01-11T00:42:11;102630.38;;;10.56;41.66
38786;BME280;24535;45.508;12.252;2024-01-11T00:47:57;102640.06;;;10.56;41.90
38786;BME280;24535;45.508;12.252;2024-01-11T00:50:33;102635.69;;;10.55;41.68
38786;BME280;24535;45.508;12.252;2024-01-11T00:56:37;102630.44;;;10.55;41.76
38786;BME280;24535;45.508;12.252;2024-01-11T01:05:32;102623.66;;;10.48;41.90
38786;BME280;24535;45.508;12.252;2024-01-11T01:07:57;102628.00;;;10.49;41.94
38786;BME280;24535;45.508;12.252;2024-01-11T01:10:26;102629.75;;;10.50;41.93
38786;BME280;24535;45.508;12.252;2024-01-11T01:12:51;102623.72;;;10.46;41.66
38786;BME280;24535;45.508;12.252;2024-01-11T01:15:17;102630.72;;;10.47;42.49
38786;BME280;24535;45.508;12.252;2024-01-11T01:17:42;102625.50;;;10.46;41.92
38786;BME280;24535;45.508;12.252;2024-01-11T01:20:20;102623.72;;;10.46;41.84
38786;BME280;24535;45.508;12.252;2024-01-11T01:26:18;102620.16;;;10.47;41.94
38786;BME280;24535;45.508;12.252;2024-01-11T01:28:45;102615.81;;;10.46;41.68
38786;BME280;24535;45.508;12.252;2024-01-11T01:31:10;102622.81;;;10.47;41.64
38786;BME280;24535;45.508;12.252;2024-01-11T01:33:35;102616.75;;;10.45;42.13
38786;BME280;24535;45.508;12.252;2024-01-11T01:36:01;102607.19;;;10.41;42.11
38786;BME280;24535;45.508;12.252;2024-01-11T01:38:33;102616.88;;;10.40;41.77
38786;BME280;24535;45.508;12.252;2024-01-11T01:40:58;102616.84;;;10.42;41.78
38786;BME280;24535;45.508;12.252;2024-01-11T01:43:30;102611.63;;;10.40;42.18
38786;BME280;24535;45.508;12.252;2024-01-11T01:46:05;102609.97;;;10.38;42.08
38786;BME280;24535;45.508;12.252;2024-01-11T01:48:42;102618.66;;;10.40;42.23
38786;BME280;24535;45.508;12.252;2024-01-11T01:51:10;102618.72;;;10.38;42.14
38786;BME280;24535;45.508;12.252;2024-01-11T01:53:40;102621.28;;;10.40;42.07
38786;BME280;24535;45.508;12.252;2024-01-11T02:06:36;102608.34;;;10.34;41.83
38786;BME280;24535;45.508;12.252;2024-01-11T02:19:23;102613.63;;;10.34;41.84
38786;BME280;24535;45.508;12.252;2024-01-11T02:22:00;102617.16;;;10.33;42.41
38786;BME280;24535;45.508;12.252;2024-01-11T02:40:44;102597.00;;;10.32;42.11
38786;BME280;24535;45.508;12.252;2024-01-11T02:43:11;102598.78;;;10.31;41.98
38786;BME280;24535;45.508;12.252;2024-01-11T02:45:48;102593.50;;;10.31;42.12
38786;BME280;24535;45.508;12.252;2024-01-11T02:56:03;102587.50;;;10.28;42.33
38786;BME280;24535;45.508;12.252;2024-01-11T03:01:35;102583.84;;;10.32;42.36
38786;BME280;24535;45.508;12.252;2024-01-11T03:04:33;102580.44;;;10.28;42.17
38786;BME280;24535;45.508;12.252;2024-01-11T03:07:08;102570.03;;;10.25;42.18
38786;BME280;24535;45.508;12.252;2024-01-11T03:30:07;102557.03;;;10.19;42.34
38786;BME280;24535;45.508;12.252;2024-01-11T03:35:11;102553.66;;;10.15;42.52
38786;BME280;24535;45.508;12.252;2024-01-11T03:40:46;102558.00;;;10.16;42.53
38786;BME280;24535;45.508;12.252;2024-01-11T03:54:42;102556.19;;;10.19;41.91
38786;BME280;24535;45.508;12.252;2024-01-11T03:57:11;102551.00;;;10.17;42.03
38786;BME280;24535;45.508;12.252;2024-01-11T03:59:47;102546.56;;;10.18;41.99
38786;BME280;24535;45.508;12.252;2024-01-11T04:02:34;102538.78;;;10.14;41.84
38786;BME280;24535;45.508;12.252;2024-01-11T04:08:05;102543.19;;;10.14;42.32
38786;BME280;24535;45.508;12.252;2024-01-11T04:10:55;102545.94;;;10.11;42.01
38786;BME280;24535;45.508;12.252;2024-01-11T04:13:20;102552.97;;;10.10;41.77
38786;BME280;24535;45.508;12.252;2024-01-11T04:15:48;102545.84;;;10.12;42.12
38786;BME280;24535;45.508;12.252;2024-01-11T04:18:58;102538.09;;;10.09;42.47
38786;BME280;24535;45.508;12.252;2024-01-11T04:21:25;102536.34;;;10.08;42.35
38786;BME280;24535;45.508;12.252;2024-01-11T04:24:01;102534.53;;;10.10;42.36
38786;BME280;24535;45.508;12.252;2024-01-11T04:26:46;102534.47;;;10.12;42.47
38786;BME280;24535;45.508;12.252;2024-01-11T04:29:12;102541.47;;;10.13;42.29
38786;BME280;24535;45.508;12.252;2024-01-11T04:34:16;102530.28;;;10.06;42.12
38786;BME280;24535;45.508;12.252;2024-01-11T04:40:03;102533.69;;;10.10;42.22
38786;BME280;24535;45.508;12.252;2024-01-11T04:42:33;102525.03;;;10.06;42.43
38786;BME280;24535;45.508;12.252;2024-01-11T04:45:25;102531.16;;;10.07;42.21
38786;BME280;24535;45.508;12.252;2024-01-11T04:48:01;102533.69;;;10.10;42.36
38786;BME280;24535;45.508;12.252;2024-01-11T04:50:27;102521.47;;;10.07;42.70
38786;BME280;24535;45.508;12.252;2024-01-11T04:53:13;102518.91;;;10.06;42.46
38786;BME280;24535;45.508;12.252;2024-01-11T04:55:38;102521.53;;;10.06;42.25
38786;BME280;24535;45.508;12.252;2024-01-11T05:22:06;102519.13;;;10.00;42.45
38786;BME280;24535;45.508;12.252;2024-01-11T07:15:44;102510.31;;;9.76;43.53
38786;BME280;24535;45.508;12.252;2024-01-11T07:18:10;102511.16;;;9.76;43.13
38786;BME280;24535;45.508;12.252;2024-01-11T07:20:36;102514.63;;;9.78;43.46
38786;BME280;24535;45.508;12.252;2024-01-11T07:23:01;102519.03;;;9.78;43.16
38786;BME280;24535;45.508;12.252;2024-01-11T07:25:29;102509.50;;;9.74;43.18
38786;BME280;24535;45.508;12.252;2024-01-11T07:27:55;102510.28;;;9.77;43.38
38786;BME280;24535;45.508;12.252;2024-01-11T07:30:21;102518.16;;;9.77;43.34
38786;BME280;24535;45.508;12.252;2024-01-11T07:32:46;102516.38;;;9.78;43.42
38786;BME280;24535;45.508;12.252;2024-01-11T07:37:52;102509.28;;;9.80;43.45
38786;BME280;24535;45.508;12.252;2024-01-11T07:40:31;102513.53;;;9.84;43.48
38786;BME280;24535;45.508;12.252;2024-01-11T07:42:56;102513.53;;;9.84;43.11
38786;BME280;24535;45.508;12.252;2024-01-11T07:45:22;102524.94;;;9.84;43.34
38786;BME280;24535;45.508;12.252;2024-01-11T07:47:58;102516.97;;;9.86;43.13
38786;BME280;24535;45.508;12.252;2024-01-11T07:50:23;102517.84;;;9.86;43.50
38786;BME280;24535;45.508;12.252;2024-01-11T07:52:59;102523.97;;;9.87;43.57
38786;BME280;24535;45.508;12.252;2024-01-11T07:55:25;102519.56;;;9.87;43.08
38786;BME280;24535;45.508;12.252;2024-01-11T07:57:51;102527.44;;;9.87;43.67
38786;BME280;24535;45.508;12.252;2024-01-11T08:03:11;102527.34;;;9.90;43.22
38786;BME280;24535;45.508;12.252;2024-01-11T08:11:39;102515.19;;;9.86;43.29
38786;BME280;24535;45.508;12.252;2024-01-11T08:14:07;102517.78;;;9.88;43.68
38786;BME280;24535;45.508;12.252;2024-01-11T08:16:33;102521.28;;;9.88;43.23
38786;BME280;24535;45.508;12.252;2024-01-11T08:19:04;102513.44;;;9.87;43.26
38786;BME280;24535;45.508;12.252;2024-01-11T08:21:30;102519.44;;;9.90;43.22
38786;BME280;24535;45.508;12.252;2024-01-11T08:23:56;102512.50;;;9.88;43.53
38786;BME280;24535;45.508;12.252;2024-01-11T08:26:21;102524.66;;;9.92;43.10
38786;BME280;24535;45.508;12.252;2024-01-11T08:28:54;102522.09;;;9.90;43.37
38786;BME280;24535;45.508;12.252;2024-01-11T08:31:22;102521.06;;;9.95;43.38
38786;BME280;24535;45.508;12.252;2024-01-11T08:33:54;102515.00;;;9.93;43.16
38786;BME280;24535;45.508;12.252;2024-01-11T08:36:36;102504.50;;;9.91;43.07
38786;BME280;24535;45.508;12.252;2024-01-11T08:39:03;102506.97;;;9.96;43.06
38786;BME280;24535;45.508;12.252;2024-01-11T08:41:38;102506.88;;;9.99;43.29
38786;BME280;24535;45.508;12.252;2024-01-11T08:44:04;102509.56;;;9.97;43.58
38786;BME280;24535;45.508;12.252;2024-01-11T08:46:39;102518.22;;;10.01;42.84
38786;BME280;24535;45.508;12.252;2024-01-11T08:49:04;102516.44;;;10.01;43.02
38786;BME280;24535;45.508;12.252;2024-01-11T08:51:39;102522.56;;;10.02;43.23
38786;BME280;24535;45.508;12.252;2024-01-11T08:54:04;102520.78;;;10.02;43.26
38786;BME280;24535;45.508;12.252;2024-01-11T08:56:34;102506.81;;;10.00;43.28
38786;BME280;24535;45.508;12.252;2024-01-11T08:59:08;102502.47;;;9.99;43.01
38786;BME280;24535;45.508;12.252;2024-01-11T09:01:43;102506.69;;;10.03;43.28
38786;BME280;24535;45.508;12.252;2024-01-11T09:04:11;102502.34;;;10.02;43.19
38786;BME280;24535;45.508;12.252;2024-01-11T09:06:37;102504.75;;;10.08;42.94
38786;BME280;24535;45.508;12.252;2024-01-11T09:09:02;102507.06;;;10.18;43.59
38786;BME280;24535;45.508;12.252;2024-01-11T09:11:28;102495.31;;;10.28;44.04
38786;BME280;24535;45.508;12.252;2024-01-11T09:13:54;102497.19;;;10.48;43.97
38786;BME280;24535;45.508;12.252;2024-01-11T09:16:20;102503.28;;;10.72;43.93
38786;BME280;24535;45.508;12.252;2024-01-11T09:18:48;102491.41;;;10.83;43.10
38786;BME280;24535;45.508;12.252;2024-01-11T09:21:14;102498.66;;;11.00;43.39
38786;BME280;24535;45.508;12.252;2024-01-11T09:23:40;102495.69;;;11.08;43.01
38786;BME280;24535;45.508;12.252;2024-01-11T09:26:06;102494.34;;;11.20;43.13
38786;BME280;24535;45.508;12.252;2024-01-11T09:28:43;102487.91;;;11.27;43.35
38786;BME280;24535;45.508;12.252;2024-01-11T09:31:29;102490.16;;;11.36;43.11
38786;BME280;24535;45.508;12.252;2024-01-11T09:33:58;102490.59;;;11.46;42.92
38786;BME280;24535;45.508;12.252;2024-01-11T09:36:23;102492.53;;;11.62;43.76
38786;BME280;24535;45.508;12.252;2024-01-11T09:38:49;102477.38;;;11.88;44.10
38786;BME280;24535;45.508;12.252;2024-01-11T09:49:33;102486.31;;;12.80;42.19
38786;BME280;24535;45.508;12.252;2024-01-11T09:58:09;102482.94;;;12.95;41.18
38786;BME280;24535;45.508;12.252;2024-01-11T10:09:22;102451.25;;;13.47;41.22
38786;BME280;24535;45.508;12.252;2024-01-11T10:11:50;102453.41;;;13.56;41.06
38786;BME280;24535;45.508;12.252;2024-01-11T10:14:21;102444.00;;;13.51;40.56
38786;BME280;24535;45.508;12.252;2024-01-11T10:16:48;102459.53;;;13.41;40.50
38786;BME280;24535;45.508;12.252;2024-01-11T10:19:16;102441.28;;;13.18;40.66
38786;BME280;24535;45.508;12.252;2024-01-11T10:21:50;102446.69;;;12.97;40.15
38786;BME280;24535;45.508;12.252;2024-01-11T10:24:23;102450.22;;;12.79;40.12
38786;BME280;24535;45.508;12.252;2024-01-11T10:26:55;102446.75;;;12.59;39.83
38786;BME280;24535;45.508;12.252;2024-01-11T10:35:04;102439.28;;;12.12;40.55
38786;BME280;24535;45.508;12.252;2024-01-11T10:37:55;102432.88;;;11.99;39.92
38786;BME280;24535;45.508;12.252;2024-01-11T10:40:28;102420.84;;;11.92;40.56
38786;BME280;24535;45.508;12.252;2024-01-11T10:43:10;102416.00;;;11.83;40.42
38786;BME280;24535;45.508;12.252;2024-01-11T10:45:46;102397.09;;;11.72;40.92
38786;BME280;24535;45.508;12.252;2024-01-11T10:48:37;102397.31;;;11.67;40.32
38786;BME280;24535;45.508;12.252;2024-01-11T10:51:12;102387.81;;;11.63;40.63
38786;BME280;24535;45.508;12.252;2024-01-11T10:53:44;102399.47;;;11.57;41.02
38786;BME280;24535;45.508;12.252;2024-01-11T10:56:11;102384.72;;;11.53;40.71
38786;BME280;24535;45.508;12.252;2024-01-11T10:58:40;102389.22;;;11.51;41.17
38786;BME280;24535;45.508;12.252;2024-01-11T11:01:09;102378.91;;;11.45;40.25
38786;BME280;24535;45.508;12.252;2024-01-11T11:03:43;102376.06;;;11.50;41.22
38786;BME280;24535;45.508;12.252;2024-01-11T11:06:09;102378.88;;;11.47;41.36
38786;BME280;24535;45.508;12.252;2024-01-11T11:09:13;102365.94;;;11.41;41.13
38786;BME280;24535;45.508;12.252;2024-01-11T11:11:49;102371.06;;;11.44;41.32
38786;BME280;24535;45.508;12.252;2024-01-11T11:14:18;102366.78;;;11.41;41.20
38786;BME280;24535;45.508;12.252;2024-01-11T11:16:44;102354.72;;;11.35;41.26
38786;BME280;24535;45.508;12.252;2024-01-11T11:19:16;102357.38;;;11.35;41.21
38786;BME280;24535;45.508;12.252;2024-01-11T11:21:43;102344.22;;;11.34;41.08
38786;BME280;24535;45.508;12.252;2024-01-11T11:24:32;102345.09;;;11.34;41.30
38786;BME280;24535;45.508;12.252;2024-01-11T11:27:02;102343.25;;;11.36;41.57
38786;BME280;24535;45.508;12.252;2024-01-11T11:29:29;102339.84;;;11.34;41.77
38786;BME280;24535;45.508;12.252;2024-01-11T11:31:55;102329.41;;;11.31;41.64
38786;BME280;24535;45.508;12.252;2024-01-11T11:34:44;102325.84;;;11.32;41.80
38786;BME280;24535;45.508;12.252;2024-01-11T11:37:38;102327.53;;;11.33;41.71
38786;BME280;24535;45.508;12.252;2024-01-11T11:52:42;102308.56;;;11.25;41.99
38786;BME280;24535;45.508;12.252;2024-01-11T11:55:17;102317.28;;;11.27;41.44
38786;BME280;24535;45.508;12.252;2024-01-11T11:57:43;102307.66;;;11.26;41.63
38786;BME280;24535;45.508;12.252;2024-01-11T12:00:20;102293.75;;;11.23;41.84
38786;BME280;24535;45.508;12.252;2024-01-11T12:02:58;102295.31;;;11.27;41.45
38786;BME280;24535;45.508;12.252;2024-01-11T12:05:26;102287.41;;;11.27;41.58
38786;BME280;24535;45.508;12.252;2024-01-11T12:08:01;102283.91;;;11.26;42.10
38786;BME280;24535;45.508;12.252;2024-01-11T12:10:42;102276.78;;;11.28;42.15
38786;BME280;24535;45.508;12.252;2024-01-11T12:13:11;102272.34;;;11.29;41.98
38786;BME280;24535;45.508;12.252;2024-01-11T12:15:37;102274.06;;;11.30;41.80
38786;BME280;24535;45.508;12.252;2024-01-11T12:26:09;102264.16;;;11.35;42.12
38786;BME280;24535;45.508;12.252;2024-01-11T12:34:46;102251.97;;;11.32;41.86
38786;BME280;24535;45.508;12.252;2024-01-11T12:37:12;102238.13;;;11.27;42.19
38786;BME280;24535;45.508;12.252;2024-01-11T12:39:45;102238.84;;;11.31;42.13
38786;BME280;24535;45.508;12.252;2024-01-11T12:42:14;102238.69;;;11.34;42.64
38786;BME280;24535;45.508;12.252;2024-01-11T12:44:42;102235.38;;;11.30;42.33
38786;BME280;24535;45.508;12.252;2024-01-11T12:47:11;102235.28;;;11.32;41.85
38786;BME280;24535;45.508;12.252;2024-01-11T12:49:37;102223.78;;;11.33;42.60
38786;BME280;24535;45.508;12.252;2024-01-11T12:52:02;102230.00;;;11.32;41.98
38786;BME280;24535;45.508;12.252;2024-01-11T12:54:39;102219.38;;;11.33;42.58
38786;BME280;24535;45.508;12.252;2024-01-11T12:57:20;102217.59;;;11.34;41.97
38786;BME280;24535;45.508;12.252;2024-01-11T12:59:46;102208.75;;;11.35;42.61
38786;BME280;24535;45.508;12.252;2024-01-11T13:02:19;102205.19;;;11.36;42.35
38786;BME280;24535;45.508;12.252;2024-01-11T13:04:50;102206.03;;;11.36;42.64
38786;BME280;24535;45.508;12.252;2024-01-11T13:07:16;102194.78;;;11.33;42.62
38786;BME280;24535;45.508;12.252;2024-01-11T13:09:44;102189.38;;;11.36;42.64
38786;BME280;24535;45.508;12.252;2024-01-11T13:12:10;102187.72;;;11.33;42.81
38786;BME280;24535;45.508;12.252;2024-01-11T13:14:42;102193.69;;;11.37;42.86
38786;BME280;24535;45.508;12.252;2024-01-11T13:17:36;102186.63;;;11.37;42.79
38786;BME280;24535;45.508;12.252;2024-01-11T13:28:17;102196.44;;;11.35;42.33
38786;BME280;24535;45.508;12.252;2024-01-11T13:30:47;102184.09;;;11.36;42.66
38786;BME280;24535;45.508;12.252;2024-01-11T13:33:15;102183.16;;;11.37;42.62
38786;BME280;24535;45.508;12.252;2024-01-11T13:35:55;102165.75;;;11.33;42.53
38786;BME280;24535;45.508;12.252;2024-01-11T14:10:38;102167.31;;;11.37;42.34
38786;BME280;24535;45.508;12.252;2024-01-11T14:48:23;102146.00;;;11.42;42.20
38786;BME280;24535;45.508;12.252;2024-01-11T14:50:58;102150.38;;;11.43;42.92
38786;BME280;24535;45.508;12.252;2024-01-11T14:54:09;102148.81;;;11.38;42.97
38786;BME280;24535;45.508;12.252;2024-01-11T14:59:49;102139.16;;;11.37;42.43
38786;BME280;24535;45.508;12.252;2024-01-11T15:02:15;102135.66;;;11.37;42.93
38786;BME280;24535;45.508;12.252;2024-01-11T15:04:42;102133.16;;;11.34;42.80
38786;BME280;24535;45.508;12.252;2024-01-11T15:12:23;102141.06;;;11.34;42.53
38786;BME280;24535;45.508;12.252;2024-01-11T15:14:57;102136.59;;;11.36;42.99
38786;BME280;24535;45.508;12.252;2024-01-11T15:17:56;102137.44;;;11.36;42.54
38786;BME280;24535;45.508;12.252;2024-01-11T15:20:53;102139.22;;;11.36;42.42
38786;BME280;24535;45.508;12.252;2024-01-11T15:23:54;102133.97;;;11.36;42.58
38786;BME280;24535;45.508;12.252;2024-01-11T15:30:03;102150.72;;;11.35;42.75
38786;BME280;24535;45.508;12.252;2024-01-11T15:32:31;102154.25;;;11.34;42.72
38786;BME280;24535;45.508;12.252;2024-01-11T15:42:45;102146.56;;;11.29;42.80
38786;BME280;24535;45.508;12.252;2024-01-11T15:45:14;102174.47;;;11.35;43.10
38786;BME280;24535;45.508;12.252;2024-01-11T15:47:40;102180.81;;;11.31;43.17
38786;BME280;24535;45.508;12.252;2024-01-11T15:59:12;102170.47;;;11.26;42.74
38786;BME280;24535;45.508;12.252;2024-01-11T16:04:39;102159.25;;;11.21;43.35
38786;BME280;24535;45.508;12.252;2024-01-11T16:12:19;102171.75;;;11.18;43.01
38786;BME280;24535;45.508;12.252;2024-01-11T16:14:49;102169.97;;;11.18;43.80
38786;BME280;24535;45.508;12.252;2024-01-11T16:20:19;102165.69;;;11.16;43.37
38786;BME280;24535;45.508;12.252;2024-01-11T16:28:21;102152.72;;;11.11;43.52
38786;BME280;24535;45.508;12.252;2024-01-11T16:39:19;102163.41;;;11.08;43.46
38786;BME280;24535;45.508;12.252;2024-01-11T16:41:47;102154.00;;;11.02;43.49
38786;BME280;24535;45.508;12.252;2024-01-11T16:44:13;102146.16;;;11.01;43.73
38786;BME280;24535;45.508;12.252;2024-01-11T16:46:38;102148.72;;;11.02;43.88
38786;BME280;24535;45.508;12.252;2024-01-11T16:49:08;102155.72;;;11.03;44.08
38786;BME280;24535;45.508;12.252;2024-01-11T16:52:01;102156.66;;;11.02;44.03
38786;BME280;24535;45.508;12.252;2024-01-11T16:54:35;102155.00;;;11.00;44.02
38786;BME280;24535;45.508;12.252;2024-01-11T16:57:03;102147.22;;;10.97;43.86
38786;BME280;24535;45.508;12.252;2024-01-11T16:59:29;102158.47;;;11.00;43.96
38786;BME280;24535;45.508;12.252;2024-01-11T17:02:00;102161.97;;;11.01;43.86
38786;BME280;24535;45.508;12.252;2024-01-11T17:04:26;102149.09;;;10.95;43.79
38786;BME280;24535;45.508;12.252;2024-01-11T17:06:51;102162.09;;;10.98;43.57
38786;BME280;24535;45.508;12.252;2024-01-11T17:09:43;102162.09;;;10.98;44.43
38786;BME280;24535;45.508;12.252;2024-01-11T17:12:15;102166.53;;;10.97;44.07
38786;BME280;24535;45.508;12.252;2024-01-11T17:14:40;102152.63;;;10.94;44.27
38786;BME280;24535;45.508;12.252;2024-01-11T17:17:18;102158.78;;;10.94;44.19
38786;BME280;24535;45.508;12.252;2024-01-11T17:19:44;102149.22;;;10.92;44.09
38786;BME280;24535;45.508;12.252;2024-01-11T17:22:24;102157.91;;;10.94;43.96
38786;BME280;24535;45.508;12.252;2024-01-11T17:25:02;102158.81;;;10.93;44.61
38786;BME280;24535;45.508;12.252;2024-01-11T17:27:28;102151.94;;;10.90;43.87
38786;BME280;24535;45.508;12.252;2024-01-11T17:29:54;102154.69;;;10.87;44.10
38786;BME280;24535;45.508;12.252;2024-01-11T17:32:20;102150.41;;;10.84;44.11
38786;BME280;24535;45.508;12.252;2024-01-11T17:34:46;102160.91;;;10.86;44.38
38786;BME280;24535;45.508;12.252;2024-01-11T17:37:17;102163.53;;;10.86;44.02
38786;BME280;24535;45.508;12.252;2024-01-11T17:40:21;102162.66;;;10.85;44.58
38786;BME280;24535;45.508;12.252;2024-01-11T17:42:49;102162.81;;;10.82;44.21
38786;BME280;24535;45.508;12.252;2024-01-11T17:45:28;102158.44;;;10.81;44.30
38786;BME280;24535;45.508;12.252;2024-01-11T17:47:54;102171.59;;;10.83;44.28
38786;BME280;24535;45.508;12.252;2024-01-11T17:50:23;102161.03;;;10.83;44.44
38786;BME280;24535;45.508;12.252;2024-01-11T17:52:55;102163.81;;;10.80;44.47
38786;BME280;24535;45.508;12.252;2024-01-11T17:55:29;102165.47;;;10.82;44.16
38786;BME280;24535;45.508;12.252;2024-01-11T17:57:54;102156.88;;;10.77;45.02
38786;BME280;24535;45.508;12.252;2024-01-11T18:00:32;102169.88;;;10.82;44.14
38786;BME280;24535;45.508;12.252;2024-01-11T18:03:00;102159.50;;;10.77;44.36
38786;BME280;24535;45.508;12.252;2024-01-11T18:05:26;102162.88;;;10.81;44.24
38786;BME280;24535;45.508;12.252;2024-01-11T18:07:58;102174.34;;;10.80;44.31
38786;BME280;24535;45.508;12.252;2024-01-11T18:10:42;102175.28;;;10.79;44.74
38786;BME280;24535;45.508;12.252;2024-01-11T18:13:07;102176.97;;;10.80;44.10
38786;BME280;24535;45.508;12.252;2024-01-11T18:15:36;102179.63;;;10.80;44.16
38786;BME280;24535;45.508;12.252;2024-01-11T18:18:08;102176.22;;;10.78;44.25
38786;BME280;24535;45.508;12.252;2024-01-11T18:20:46;102174.47;;;10.77;44.76
38786;BME280;24535;45.508;12.252;2024-01-11T18:23:14;102177.09;;;10.77;44.37
38786;BME280;24535;45.508;12.252;2024-01-11T18:25:49;102172.78;;;10.76;44.44
38786;BME280;24535;45.508;12.252;2024-01-11T18:28:18;102170.22;;;10.74;44.44
38786;BME280;24535;45.508;12.252;2024-01-11T18:30:47;102172.84;;;10.74;44.39
38786;BME280;24535;45.508;12.252;2024-01-11T18:33:25;102172.78;;;10.76;45.01
38786;BME280;24535;45.508;12.252;2024-01-11T18:35:51;102174.69;;;10.72;44.45
38786;BME280;24535;45.508;12.252;2024-01-11T18:38:18;102169.50;;;10.71;44.88
38786;BME280;24535;45.508;12.252;2024-01-11T18:40:52;102172.91;;;10.73;44.52
38786;BME280;24535;45.508;12.252;2024-01-11T18:43:17;102161.59;;;10.71;44.58
38786;BME280;24535;45.508;12.252;2024-01-11T18:45:45;102159.88;;;10.70;44.64
38786;BME280;24535;45.508;12.252;2024-01-11T18:48:21;102158.94;;;10.71;44.93
38786;BME280;24535;45.508;12.252;2024-01-11T18:50:47;102158.09;;;10.70;44.80
38786;BME280;24535;45.508;12.252;2024-01-11T18:53:21;102163.28;;;10.72;44.90
38786;BME280;24535;45.508;12.252;2024-01-11T19:01:20;102154.78;;;10.65;44.60
38786;BME280;24535;45.508;12.252;2024-01-11T19:03:50;102160.00;;;10.67;44.48
38786;BME280;24535;45.508;12.252;2024-01-11T19:08:50;102160.94;;;10.66;44.30
38786;BME280;24535;45.508;12.252;2024-01-11T19:13:51;102159.19;;;10.64;44.61
38786;BME280;24535;45.508;12.252;2024-01-11T19:16:22;102153.88;;;10.66;44.82
38786;BME280;24535;45.508;12.252;2024-01-11T19:18:48;102164.56;;;10.63;44.30
38786;BME280;24535;45.508;12.252;2024-01-11T19:21:13;102166.38;;;10.61;44.78
38786;BME280;24535;45.508;12.252;2024-01-11T19:23:42;102179.44;;;10.64;44.50
38786;BME280;24535;45.508;12.252;2024-01-11T19:26:08;102180.38;;;10.63;44.79
38786;BME280;24535;45.508;12.252;2024-01-11T19:28:33;102179.44;;;10.64;44.79
38786;BME280;24535;45.508;12.252;2024-01-11T19:31:05;102176.81;;;10.64;44.57
38786;BME280;24535;45.508;12.252;2024-01-11T19:33:40;102175.19;;;10.61;45.12
38786;BME280;24535;45.508;12.252;2024-01-11T19:36:11;102175.19;;;10.61;44.79
38786;BME280;24535;45.508;12.252;2024-01-11T19:38:58;102173.44;;;10.60;44.98
38786;BME280;24535;45.508;12.252;2024-01-11T20:02:07;102195.53;;;10.58;44.73
38786;BME280;24535;45.508;12.252;2024-01-11T20:04:37;102192.94;;;10.56;44.42
38786;BME280;24535;45.508;12.252;2024-01-11T20:07:09;102199.06;;;10.57;44.93
38786;BME280;24535;45.508;12.252;2024-01-11T20:12:13;102206.97;;;10.57;45.05
38786;BME280;24535;45.508;12.252;2024-01-11T20:17:39;102201.69;;;10.57;45.12
38786;BME280;24535;45.508;12.252;2024-01-11T20:20:24;102194.81;;;10.54;45.92
38786;BME280;24535;45.508;12.252;2024-01-11T20:22:59;102208.75;;;10.56;45.18
38786;BME280;24535;45.508;12.252;2024-01-11T20:28:22;102207.97;;;10.54;45.15
38786;BME280;24535;45.508;12.252;2024-01-11T20:37:36;102200.31;;;10.48;45.01
38786;BME280;24535;45.508;12.252;2024-01-11T20:40:11;102213.38;;;10.51;45.30
38786;BME280;24535;45.508;12.252;2024-01-11T20:42:37;102210.09;;;10.46;45.85
38786;BME280;24535;45.508;12.252;2024-01-11T20:45:11;102210.94;;;10.47;45.38
38786;BME280;24535;45.508;12.252;2024-01-11T20:48:12;102216.22;;;10.47;45.35
38786;BME280;24535;45.508;12.252;2024-01-11T20:51:02;102218.00;;;10.46;45.36
38786;BME280;24535;45.508;12.252;2024-01-11T20:53:35;102230.34;;;10.44;45.26
38786;BME280;24535;45.508;12.252;2024-01-11T20:56:10;102236.47;;;10.45;45.26
38786;BME280;24535;45.508;12.252;2024-01-11T20:58:38;102230.44;;;10.43;45.02
38786;BME280;24535;45.508;12.252;2024-01-11T21:01:28;102240.00;;;10.45;45.15
38786;BME280;24535;45.508;12.252;2024-01-11T21:03:53;102239.91;;;10.47;45.06
38786;BME280;24535;45.508;12.252;2024-01-11T21:06:25;102238.22;;;10.46;45.08
38786;BME280;24535;45.508;12.252;2024-01-11T21:08:51;102246.97;;;10.46;45.21
38786;BME280;24535;45.508;12.252;2024-01-11T21:11:42;102240.88;;;10.44;45.19
38786;BME280;24535;45.508;12.252;2024-01-11T21:14:10;102241.00;;;10.41;44.91
38786;BME280;24535;45.508;12.252;2024-01-11T21:16:38;102252.44;;;10.42;45.09
38786;BME280;24535;45.508;12.252;2024-01-11T21:25:03;102251.75;;;10.36;45.11
38786;BME280;24535;45.508;12.252;2024-01-11T21:27:40;102254.34;;;10.38;45.15
38786;BME280;24535;45.508;12.252;2024-01-11T21:30:12;102263.00;;;10.40;45.25
38786;BME280;24535;45.508;12.252;2024-01-11T21:32:38;102250.84;;;10.37;45.08
38786;BME280;24535;45.508;12.252;2024-01-11T21:35:21;102256.91;;;10.39;45.33
38786;BME280;24535;45.508;12.252;2024-01-11T21:37:54;102259.53;;;10.39;45.52